• Join FlightAware (Why Join?)
  • Login
  • US Flag 
08:26AM EST


 

Airport Tracker/Info


-or-


 

Live Flight TrackerFlight Track Log ✈ SKW6509 ✈ 18-Aug-2014 ✈ KDEN - KSNA

Flight Track Log - Related Links

Times and Time Zones

All times are in EDT time to prevent confusion due to time zone crossing. See the SKW6509 flight status page for this flight to view local times or setup timezone preferences in your user account.

Time Position Orientation Groundspeed Altitude Reporting Facility
EDT Latitude Longitude Course Direction KTS MPH feet Rate Location/Type
07:29PM 39.8481 -104.7531 304° West 191 220 6,500  Level Denver Center
07:30PM 39.8842 -104.8231 304° West 227 261 7,900 1,306 Climbing Denver Center
07:31PM 39.9322 -104.9167 304° West 292 336 9,200 1,561 Climbing Denver Center
07:32PM 40.0172 -104.9392 349° North 310 357 11,100 1,902 Climbing Denver Center
07:33PM 40.1078 -104.9503 355° North 323 372 13,100 2,081 Climbing Denver Center
07:34PM 40.2047 -104.9561 357° North 325 374 15,400 1,935 Climbing Denver Center
07:35PM 40.2994 -104.9561 360° North 340 391 17,100 1,694 Climbing Denver Center
07:36PM 40.3964 -104.9514 North 346 398 18,900 1,452 Climbing Denver Center
07:37PM 40.4989 -104.9731 351° North 350 403 20,100 1,016 Climbing Denver Center
07:38PM 40.5972 -104.9881 353° North 354 407 21,000 1,161 Climbing Denver Center
07:39PM 40.6917 -105.0033 353° North 359 413 22,500 1,500 Climbing Denver Center
07:40PM 40.7939 -105.0236 351° North 373 429 24,100 1,548 Climbing Denver Center
07:41PM 40.9094 -105.0817 339° North 383 441 25,700 1,355 Climbing Denver Center
07:42PM 40.9989 -105.1539 329° Northwest 378 435 26,900 1,113 Climbing Denver Center
07:43PM 41.0336 -105.2803 290° West 373 429 28,000 1,065 Climbing Denver Center
07:44PM 41.0583 -105.4317 282° West 375 432 29,100 919 Climbing Denver Center
07:45PM 41.0811 -105.5650 283° West 382 440 29,900 774 Climbing Denver Center
07:46PM 41.1031 -105.6992 282° West 384 442 30,700 871 Climbing Denver Center
07:47PM 41.1283 -105.8589 282° West 395 455 31,700 1,065 Climbing Denver Center
07:48PM 41.1511 -105.9969 282° West 400 460 32,900 1,113 Climbing Denver Center
07:49PM 41.1767 -106.1536 282° West 392 451 34,000 532 Climbing Denver Center
07:50PM 41.1997 -106.3053 281° West 397 457 34,000  Level Denver Center
07:51PM 41.2222 -106.4494 282° West 415 478 34,000  Level Denver Center
07:52PM 41.2486 -106.6228 282° West 425 489 34,000  Level Denver Center
07:53PM 41.2700 -106.7697 281° West 425 489 34,000  Level Denver Center
07:54PM 41.2978 -106.9408 282° West 425 489 34,000  Level Denver Center
07:55PM 41.3192 -107.0842 281° West 418 481 34,000  Level Denver Center
07:57PM 41.3447 -107.2528 281° West 416 479 34,000  Level Denver Center
07:58PM 41.3661 -107.4014 281° West 425 489 34,000  Level Denver Center
07:59PM 41.3922 -107.5753 281° West 430 495 34,000  Level Denver Center
08:00PM 41.4144 -107.7272 281° West 432 497 34,000  Level Denver Center
08:01PM 41.4356 -107.8789 281° West 434 499 34,000  Level Denver Center
08:01PM 41.4536 -108.0053 281° West 433 498 34,000  Level Salt Lake Center
08:02PM 41.4753 -108.1581 281° West 437 503 34,000  Level Salt Lake Center
08:03PM 41.4997 -108.3356 280° West 437 503 34,000 293 Level Salt Lake Center
08:04PM 41.5200 -108.4878 280° West 437 503 34,600 780 Climbing Salt Lake Center
08:06PM 41.5439 -108.6603 281° West 428 493 35,600 919 Climbing Salt Lake Center
08:07PM 41.5639 -108.8056 280° West 424 488 36,500 919 Climbing Salt Lake Center
08:08PM 41.5500 -108.9700 264° West 405 466 37,500 732 Climbing Salt Lake Center
08:09PM 41.4933 -109.0875 237° Southwest 398 458 38,000 244 Climbing Salt Lake Center
08:10PM 41.3978 -109.2136 225° Southwest 421 484 38,000  Level Salt Lake Center
08:11PM 41.3142 -109.3244 225° Southwest 414 476 38,000  Level Salt Lake Center
08:12PM 41.2364 -109.4278 225° Southwest 413 475 38,000  Level Salt Lake Center
08:13PM 41.1575 -109.5300 224° Southwest 414 476 38,000  Level Salt Lake Center
08:14PM 41.0661 -109.6522 225° Southwest 415 478 38,000  Level Salt Lake Center
08:15PM 40.9867 -109.7569 225° Southwest 417 480 38,000  Level Salt Lake Center
08:16PM 40.8936 -109.8772 224° Southwest 419 482 38,000  Level Salt Lake Center
08:17PM 40.8069 -109.9914 225° Southwest 420 483 38,000  Level Salt Lake Center
08:18PM 40.7231 -110.1000 224° Southwest 421 484 38,000  Level Salt Lake Center
08:19PM 40.6400 -110.2086 225° Southwest 421 484 38,000  Level Salt Lake Center
08:20PM 40.5558 -110.3161 224° Southwest 421 484 38,000  Level Salt Lake Center
08:21PM 40.4722 -110.4236 224° Southwest 422 486 38,000  Level Salt Lake Center
08:22PM 40.3881 -110.5297 224° Southwest 422 486 38,000  Level Salt Lake Center
08:23PM 40.2889 -110.6558 224° Southwest 419 482 38,000  Level Salt Lake Center
08:24PM 40.2061 -110.7606 224° Southwest 418 481 38,000  Level Salt Lake Center
08:25PM 40.1256 -110.8642 225° Southwest 413 475 38,000  Level Salt Lake Center
08:26PM 40.0344 -110.9778 224° Southwest 407 468 38,000  Level Salt Lake Center
08:27PM 39.9628 -111.0686 224° Southwest 406 467 38,000  Level Salt Lake Center
08:28PM 39.8811 -111.1708 224° Southwest 406 467 38,000  Level Salt Lake Center
08:29PM 39.7825 -111.2928 224° Southwest 407 468 38,000  Level Salt Lake Center
08:30PM 39.7053 -111.3886 224° Southwest 411 473 38,000  Level Salt Lake Center
08:31PM 39.6239 -111.4894 224° Southwest 408 470 38,000  Level Salt Lake Center
08:32PM 39.5419 -111.5900 223° Southwest 407 468 38,000  Level Salt Lake Center
08:33PM 39.4608 -111.6908 224° Southwest 406 467 38,000  Level Salt Lake Center
08:34PM 39.3631 -111.8103 223° Southwest 404 465 38,000  Level Salt Lake Center
08:35PM 39.2808 -111.9097 223° Southwest 404 465 38,000  Level Salt Lake Center
08:36PM 39.2061 -112.0028 224° Southwest 398 458 38,000  Level Salt Lake Center
08:37PM 39.1231 -112.1014 223° Southwest 404 465 38,000  Level Salt Lake Center
08:38PM 39.0178 -112.1528 201° Southwest 407 468 38,000  Level Salt Lake Center
08:40PM 38.8889 -112.2075 198° South 407 468 38,000  Level Salt Lake Center
08:41PM 38.7817 -112.2511 198° South 406 467 38,000 49 Level Salt Lake Center
08:42PM 38.6739 -112.2950 198° South 406 467 38,100  Climbing Salt Lake Center
08:43PM 38.5658 -112.3392 198° South 406 467 38,000 -48 Descending Salt Lake Center
08:44PM 38.4569 -112.3819 197° South 408 470 38,000  Level Salt Lake Center
08:45PM 38.3494 -112.4275 198° South 408 470 38,000  Level Salt Lake Center
08:46PM 38.2208 -112.4783 197° South 405 466 38,000  Level Salt Lake Center
08:47PM 38.1186 -112.5417 206° Southwest 408 470 38,000  Level Salt Lake Center
08:48PM 38.0300 -112.6306 218° Southwest 407 468 38,000  Level Salt Lake Center
08:49PM 37.9442 -112.7283 222° Southwest 411 473 38,000  Level Salt Lake Center
08:50PM 37.8592 -112.8269 223° Southwest 415 478 38,000  Level Salt Lake Center
08:51PM 37.7731 -112.9264 222° Southwest 417 480 38,000 48 Level Salt Lake Center
08:52PM 37.6667 -113.0461 222° Southwest 432 497 38,100  Climbing Salt Lake Center
08:53PM 37.5769 -113.1428 221° Southwest 433 498 38,000 -49 Descending Los Angeles Center
08:54PM 37.4878 -113.2414 221° Southwest 432 497 38,000  Level Los Angeles Center
08:55PM 37.3981 -113.3422 222° Southwest 433 498 38,000  Level Los Angeles Center
08:56PM 37.3069 -113.4425 221° Southwest 434 499 38,000  Level Los Angeles Center
08:57PM 37.1986 -113.5622 221° Southwest 434 499 38,000  Level Los Angeles Center
08:58PM 37.1075 -113.6617 221° Southwest 435 501 38,000  Level Los Angeles Center
08:59PM 37.0158 -113.7606 221° Southwest 435 501 38,000  Level Los Angeles Center
09:00PM 36.9250 -113.8608 221° Southwest 436 502 38,000  Level Los Angeles Center
09:01PM 36.8283 -113.9647 221° Southwest 436 502 38,000  Level Los Angeles Center
09:02PM 36.7422 -114.0581 221° Southwest 436 502 38,000  Level Los Angeles Center
09:03PM 36.6339 -114.1761 221° Southwest 435 501 38,000  Level Los Angeles Center
09:04PM 36.5378 -114.2792 221° Southwest 434 499 38,000  Level Los Angeles Center
09:05PM 36.4472 -114.3764 221° Southwest 432 497 38,000  Level Los Angeles Center
09:06PM 36.3583 -114.4742 222° Southwest 431 496 38,000  Level Los Angeles Center
09:07PM 36.2678 -114.5703 221° Southwest 429 494 38,000  Level Los Angeles Center
09:08PM 36.1778 -114.6664 221° Southwest 429 494 38,000  Level Los Angeles Center
09:09PM 36.0878 -114.7617 221° Southwest 427 491 38,000  Level Los Angeles Center
09:10PM 35.9994 -114.8572 221° Southwest 423 487 38,000  Level Los Angeles Center
09:11PM 35.9231 -114.9614 228° Southwest 413 475 38,000  Level Los Angeles Center
09:13PM 35.8292 -115.0875 227° Southwest 413 475 38,000  Level Los Angeles Center
09:14PM 35.7525 -115.1908 228° Southwest 409 471 38,000  Level Los Angeles Center
09:15PM 35.6753 -115.2944 227° Southwest 409 471 38,000  Level Los Angeles Center
09:16PM 35.5992 -115.3986 228° Southwest 409 471 38,000 -48 Level Los Angeles Center
09:17PM 35.5222 -115.5019 228° Southwest 409 471 37,900 -629 Descending Los Angeles Center
09:18PM 35.4367 -115.6164 227° Southwest 409 471 36,700 -1,073 Descending Los Angeles Center
09:19PM 35.3611 -115.7161 227° Southwest 403 464 35,700 -976 Descending Los Angeles Center
09:20PM 35.2872 -115.8161 228° Southwest 401 461 34,700 -968 Descending Los Angeles Center
09:21PM 35.2106 -115.9153 227° Southwest 400 460 33,700 -968 Descending Los Angeles Center
09:22PM 35.1344 -116.0164 227° Southwest 401 461 32,700 -968 Descending Los Angeles Center
09:23PM 35.0572 -116.1197 228° Southwest 407 468 31,700 -1,065 Descending Los Angeles Center
09:24PM 34.9653 -116.2419 227° Southwest 408 470 30,500 -1,065 Descending Los Angeles Center
09:25PM 34.8864 -116.3456 227° Southwest 411 473 29,500 -968 Descending Los Angeles Center
09:26PM 34.8053 -116.4489 226° Southwest 416 479 28,500 -1,597 Descending Los Angeles Center
09:27PM 34.7219 -116.5550 226° Southwest 430 495 26,200 -2,710 Descending Los Angeles Center
09:28PM 34.6214 -116.6783 225° Southwest 463 533 22,900 -3,097 Descending Los Angeles Center
09:29PM 34.5289 -116.7908 225° Southwest 446 513 19,800 -2,565 Descending Los Angeles Center
09:30PM 34.4603 -116.8722 224° Southwest 418 481 17,600 -2,565 Descending Los Angeles Center
09:31PM 34.3700 -116.9828 225° Southwest 389 448 14,500 -2,244 Descending Los Angeles Center
09:32PM 34.2978 -117.0700 225° Southwest 377 434 13,000 -732 Descending Los Angeles Center
09:33PM 34.1961 -117.1219 203° Southwest 385 443 13,000 -389 Level Los Angeles Center
09:34PM 34.1167 -117.1333 187° South 387 445 12,300 -1,019 Descending Southern California TRACON
09:35PM 34.0167 -117.1500 188° South 327 376 11,200 -1,200 Descending Southern California TRACON
09:37PM 33.9167 -117.2833 228° Southwest 265 305 8,700 -722 Descending Southern California TRACON
09:39PM 33.8164 -117.4392 232° Southwest 256 295 8,000 -203 Descending Los Angeles Center
09:40PM 33.7811 -117.5086 239° Southwest 252 290 8,000 -488 Level Los Angeles Center
09:41PM 33.7808 -117.5892 270° West 246 283 7,000 -1,213 Descending Los Angeles Center
09:42PM 33.7833 -117.6500 273° West 231 266 6,100 -1,565 Descending Southern California TRACON
09:43PM 33.7833 -117.7167 270° West 201 231 4,600 -1,500 Descending Southern California TRACON
09:44PM 33.7833 -117.7667 270° West 184 212 3,100 -1,350 Descending Southern California TRACON
09:45PM 33.7667 -117.8167 248° West 173 199 1,900 -1,000 Descending Southern California TRACON
09:46PM 33.7333 -117.8333 203° Southwest 129 148 1,100 -750 Descending Southern California TRACON
09:47PM 33.7000 -117.8500 203° Southwest 131 151 400 -700 Descending Southern California TRACON
09:50PM 33.6757 -117.8682 132° Southeast  Level Estimated